Time;durP1;ratioP1;P1;durP2;ratioP2;P2;SDS_P1;SDS_P2;PMS_P1;PMS_P2;Temp;Humidity;BMP_temperature;BMP_pressure;BME280_temperature;BME280_humidity;BME280_pressure;Samples;Min_cycle;Max_cycle;Signal;HPM_P1;HPM_P2
2022/10/17 00:01:01;;;;;;;2.70;2.50;;;24.00;68.50;;;;;;4896512;29;20474;-80
2022/10/17 00:03:30;;;;;;;2.20;2.10;;;24.00;68.50;;;;;;4892128;29;21000;-86
2022/10/17 00:05:58;;;;;;;2.27;2.17;;;24.00;68.50;;;;;;4900305;29;20453;-86
2022/10/17 00:08:26;;;;;;;2.73;2.53;;;24.00;68.50;;;;;;4890419;29;20463;-85
2022/10/17 00:10:59;;;;;;;2.97;2.77;;;24.00;68.50;;;;;;4898354;29;20453;-86
2022/10/17 00:13:29;;;;;;;2.43;2.23;;;24.00;68.40;;;;;;4898075;29;20455;-86
2022/10/17 00:15:57;;;;;;;2.40;2.27;;;24.00;68.50;;;;;;4898546;29;20455;-86
2022/10/17 00:18:25;;;;;;;2.77;2.57;;;24.00;68.50;;;;;;4895053;29;20460;-85
2022/10/17 00:20:53;;;;;;;2.50;2.30;;;24.00;68.40;;;;;;4898448;29;20477;-85
2022/10/17 00:23:22;;;;;;;2.70;2.50;;;24.00;68.50;;;;;;4896470;29;20513;-85
2022/10/17 00:25:58;;;;;;;3.20;2.70;;;24.00;68.40;;;;;;4899262;29;20450;-82
2022/10/17 00:28:28;;;;;;;2.50;2.30;;;24.00;68.50;;;;;;4899144;29;20460;-85
2022/10/17 00:30:57;;;;;;;3.60;2.20;;;24.00;68.40;;;;;;4899927;29;20481;-85
2022/10/17 00:33:26;;;;;;;2.03;1.93;;;23.90;68.40;;;;;;4898958;29;20542;-86
2022/10/17 00:36:03;;;;;;;2.30;2.10;;;23.90;68.50;;;;;;4899792;29;20923;-85
2022/10/17 00:38:32;;;;;;;2.70;2.50;;;23.90;68.40;;;;;;4898084;29;20480;-83
2022/10/17 00:41:00;;;;;;;2.70;2.50;;;23.90;68.40;;;;;;4895681;29;20987;-85
2022/10/17 00:43:30;;;;;;;2.37;2.20;;;23.90;68.40;;;;;;4898669;29;20560;-86
2022/10/17 00:45:58;;;;;;;2.40;2.20;;;23.90;68.40;;;;;;4894769;29;20535;-85
2022/10/17 00:48:26;;;;;;;1.90;1.80;;;23.90;68.40;;;;;;4891807;29;20568;-85
2022/10/17 00:50:55;;;;;;;2.53;2.33;;;23.90;68.40;;;;;;4896366;29;20447;-80
2022/10/17 00:53:23;;;;;;;2.30;2.20;;;23.90;68.40;;;;;;4895568;29;20450;-85
2022/10/17 00:55:53;;;;;;;2.87;2.63;;;23.90;68.40;;;;;;4907032;29;20460;-84
2022/10/17 00:58:22;;;;;;;2.70;2.50;;;23.90;68.40;;;;;;4899361;29;20489;-85
2022/10/17 01:00:51;;;;;;;2.53;2.40;;;23.90;68.40;;;;;;4898466;29;20473;-86
2022/10/17 01:03:19;;;;;;;3.53;2.43;;;23.90;68.40;;;;;;4891135;29;20475;-85
2022/10/17 01:05:48;;;;;;;2.90;2.70;;;23.90;68.40;;;;;;4898098;29;20464;-81
2022/10/17 01:08:16;;;;;;;2.57;2.47;;;23.90;68.40;;;;;;4896773;29;20469;-85
2022/10/17 01:10:56;;;;;;;2.30;2.20;;;23.90;68.40;;;;;;4890364;29;21358;-86
2022/10/17 01:13:33;;;;;;;2.67;2.47;;;23.90;68.40;;;;;;4898938;29;20440;-86
2022/10/17 01:16:11;;;;;;;2.00;1.90;;;23.90;68.40;;;;;;4896236;29;20477;-86
2022/10/17 01:18:51;;;;;;;2.63;2.43;;;23.80;68.40;;;;;;4898090;29;20812;-86
2022/10/17 01:21:33;;;;;;;2.60;2.40;;;23.80;68.40;;;;;;4897140;29;20897;-86
2022/10/17 01:24:24;;;;;;;2.17;2.07;;;23.80;68.40;;;;;;4897946;29;20449;-84
2022/10/17 01:27:24;;;;;;;2.00;1.90;;;23.80;68.40;;;;;;4893489;29;20539;-85
2022/10/17 01:30:23;;;;;;;1.80;1.70;;;23.80;68.40;;;;;;4868845;29;20475;-83
2022/10/17 01:32:57;;;;;;;2.10;2.00;;;23.80;68.40;;;;;;4896395;29;20552;-85
2022/10/17 01:35:30;;;;;;;3.90;2.40;;;23.80;68.40;;;;;;4896840;29;20485;-86
2022/10/17 01:38:07;;;;;;;1.83;1.73;;;23.80;68.40;;;;;;4895939;29;20468;-85
2022/10/17 01:40:40;;;;;;;2.40;2.30;;;23.80;68.40;;;;;;4903267;29;20567;-86
2022/10/17 01:43:16;;;;;;;2.10;2.00;;;23.80;68.40;;;;;;4896620;29;21402;-86
2022/10/17 01:45:49;;;;;;;3.10;2.17;;;23.80;68.40;;;;;;4897209;29;20795;-85
2022/10/17 01:48:22;;;;;;;1.97;1.87;;;23.80;68.40;;;;;;4886976;29;21207;-86
2022/10/17 01:50:53;;;;;;;2.07;1.97;;;23.80;68.50;;;;;;4893575;29;20444;-82
2022/10/17 01:53:28;;;;;;;2.60;2.40;;;23.80;68.50;;;;;;4908521;29;21050;-83
2022/10/17 01:55:59;;;;;;;2.47;2.30;;;23.80;68.50;;;;;;4911485;29;20509;-86
2022/10/17 01:58:31;;;;;;;4.97;2.50;;;23.80;68.40;;;;;;4899505;29;20497;-84
2022/10/17 02:01:02;;;;;;;2.27;2.10;;;23.80;68.50;;;;;;4899113;29;20488;-85
2022/10/17 02:03:35;;;;;;;2.20;2.10;;;23.70;68.50;;;;;;4895099;29;20478;-82
2022/10/17 02:06:06;;;;;;;2.20;2.00;;;23.70;68.50;;;;;;4896273;29;20464;-85
2022/10/17 02:08:42;;;;;;;2.10;2.00;;;23.70;68.50;;;;;;4889918;29;20457;-83
2022/10/17 02:11:15;;;;;;;2.30;2.10;;;23.70;68.50;;;;;;4896774;29;20565;-85
2022/10/17 02:14:00;;;;;;;2.30;2.20;;;23.70;68.50;;;;;;4902553;29;20538;-85
2022/10/17 02:16:37;;;;;;;2.60;2.40;;;23.70;68.50;;;;;;4908462;29;20453;-87
2022/10/17 02:19:27;;;;;;;2.53;2.43;;;23.70;68.50;;;;;;4896308;29;20479;-86
2022/10/17 02:22:07;;;;;;;2.30;2.20;;;23.70;68.50;;;;;;4892708;29;20516;-85
2022/10/17 02:24:45;;;;;;;2.30;2.20;;;23.70;68.50;;;;;;4893611;29;20470;-85
2022/10/17 02:27:23;;;;;;;2.50;2.30;;;23.70;68.50;;;;;;4888072;29;20934;-85
2022/10/17 02:29:58;;;;;;;2.30;2.20;;;23.70;68.50;;;;;;4889858;29;20516;-85
2022/10/17 02:32:35;;;;;;;2.00;1.90;;;23.70;68.50;;;;;;4895530;29;20467;-82
2022/10/17 02:35:08;;;;;;;2.23;2.13;;;23.70;68.50;;;;;;4902474;29;20470;-84
2022/10/17 02:37:38;;;;;;;2.03;1.93;;;23.70;68.50;;;;;;4889631;29;20482;-86
2022/10/17 02:40:08;;;;;;;2.20;2.10;;;23.70;68.50;;;;;;4894925;29;20468;-86
2022/10/17 02:42:42;;;;;;;2.47;2.27;;;23.70;68.50;;;;;;4895113;29;20482;-86
2022/10/17 02:45:11;;;;;;;2.20;2.10;;;23.60;68.50;;;;;;4897457;29;21205;-85
2022/10/17 02:47:50;;;;;;;2.33;2.13;;;23.70;68.50;;;;;;4891982;29;20473;-86
2022/10/17 02:50:26;;;;;;;1.93;1.83;;;23.60;68.50;;;;;;4893741;29;20450;-86
2022/10/17 02:53:01;;;;;;;2.07;1.97;;;23.70;68.50;;;;;;4890842;29;20534;-86
2022/10/17 02:55:32;;;;;;;2.00;1.90;;;23.60;68.50;;;;;;4911483;29;20895;-86
2022/10/17 02:58:05;;;;;;;2.23;2.03;;;23.60;68.50;;;;;;4902609;29;20462;-85
2022/10/17 03:00:38;;;;;;;2.77;2.00;;;23.60;68.50;;;;;;4894043;29;20523;-86
2022/10/17 03:03:20;;;;;;;2.10;2.00;;;23.60;68.50;;;;;;4890749;29;20477;-86
2022/10/17 03:05:50;;;;;;;2.00;1.90;;;23.60;68.50;;;;;;4896050;29;20455;-85
2022/10/17 03:08:22;;;;;;;2.60;2.40;;;23.60;68.60;;;;;;4891905;29;20478;-86
2022/10/17 03:10:51;;;;;;;1.67;1.57;;;23.60;68.60;;;;;;4888281;29;20457;-82
2022/10/17 03:13:20;;;;;;;2.20;2.10;;;23.60;68.60;;;;;;4892751;29;20485;-84
2022/10/17 03:15:49;;;;;;;2.30;2.20;;;23.60;68.60;;;;;;4878320;29;20548;-86
2022/10/17 03:18:17;;;;;;;1.67;1.57;;;23.60;68.60;;;;;;4896503;29;20457;-86
2022/10/17 03:20:49;;;;;;;2.00;1.90;;;23.60;68.60;;;;;;4888143;29;20811;-86
2022/10/17 03:23:17;;;;;;;2.17;2.07;;;23.60;68.60;;;;;;4894650;29;20490;-83
2022/10/17 03:25:46;;;;;;;2.10;1.97;;;23.60;68.60;;;;;;4893942;29;20452;-85
2022/10/17 03:28:15;;;;;;;2.47;2.27;;;23.60;68.60;;;;;;4886410;29;20563;-85
2022/10/17 03:30:43;;;;;;;1.70;1.60;;;23.60;68.60;;;;;;4893106;29;20556;-85
2022/10/17 03:33:11;;;;;;;2.00;1.90;;;23.50;68.60;;;;;;4894235;29;20841;-85
2022/10/17 03:35:40;;;;;;;1.77;1.67;;;23.50;68.60;;;;;;4890153;29;20465;-86
2022/10/17 03:38:10;;;;;;;2.07;1.97;;;23.50;68.60;;;;;;4895962;29;20533;-86
2022/10/17 03:40:38;;;;;;;1.87;1.77;;;23.50;68.60;;;;;;4898085;29;20470;-86
2022/10/17 03:43:10;;;;;;;1.43;1.43;;;23.50;68.60;;;;;;4899711;29;20482;-85
2022/10/17 03:45:42;;;;;;;2.13;2.03;;;23.50;68.60;;;;;;4901396;29;20478;-86
2022/10/17 03:48:11;;;;;;;1.87;1.77;;;23.50;68.60;;;;;;4899782;29;20463;-86
2022/10/17 03:50:39;;;;;;;2.63;2.43;;;23.50;68.60;;;;;;4906785;29;20515;-85
2022/10/17 03:53:09;;;;;;;2.43;2.33;;;23.50;68.60;;;;;;4897539;29;20470;-86
2022/10/17 03:55:38;;;;;;;2.20;2.10;;;23.50;68.70;;;;;;4899247;29;20537;-86
2022/10/17 03:58:06;;;;;;;1.90;1.80;;;23.50;68.60;;;;;;4897757;29;20461;-86
2022/10/17 04:00:36;;;;;;;1.87;1.77;;;23.50;68.60;;;;;;4897894;29;20462;-86
2022/10/17 04:03:05;;;;;;;1.80;1.70;;;23.50;68.70;;;;;;4895753;29;20472;-85
2022/10/17 04:05:33;;;;;;;1.70;1.60;;;23.50;68.70;;;;;;4897128;29;20455;-81
2022/10/17 04:08:01;;;;;;;2.03;1.93;;;23.50;68.60;;;;;;4895413;29;20981;-84
2022/10/17 04:11:04;;;;;;;1.77;1.67;;;23.50;68.60;;;;;;4903266;29;20468;-83
2022/10/17 04:13:33;;;;;;;1.70;1.60;;;23.50;68.60;;;;;;4914410;29;20494;-83
2022/10/17 04:16:03;;;;;;;1.70;1.60;;;23.50;68.70;;;;;;4899187;29;20542;-83
2022/10/17 04:18:33;;;;;;;1.80;1.70;;;23.50;68.70;;;;;;4914058;29;20474;-82
2022/10/17 04:21:01;;;;;;;1.90;1.80;;;23.50;68.70;;;;;;4900505;29;20464;-82
2022/10/17 04:23:30;;;;;;;1.70;1.60;;;23.50;68.70;;;;;;4912096;29;21050;-81
2022/10/17 04:26:06;;;;;;;2.30;2.20;;;23.50;68.70;;;;;;4898852;29;20491;-81
2022/10/17 04:28:35;;;;;;;1.77;1.67;;;23.40;68.70;;;;;;4897424;29;20461;-80
2022/10/17 04:31:05;;;;;;;1.60;1.50;;;23.40;68.70;;;;;;4910384;29;20480;-80
2022/10/17 04:33:41;;;;;;;1.57;1.47;;;23.40;68.70;;;;;;4894263;29;20473;-81
2022/10/17 04:36:12;;;;;;;2.10;2.00;;;23.40;68.70;;;;;;4898998;29;20471;-82
2022/10/17 04:38:41;;;;;;;1.70;1.60;;;23.40;68.70;;;;;;4898061;29;20474;-83
2022/10/17 04:41:13;;;;;;;2.17;2.07;;;23.40;68.70;;;;;;4895508;29;20468;-82
2022/10/17 04:43:42;;;;;;;1.90;1.80;;;23.40;68.70;;;;;;4899034;29;20476;-85
2022/10/17 04:46:18;;;;;;;1.80;1.70;;;23.40;68.70;;;;;;4913597;29;20470;-85
2022/10/17 04:48:47;;;;;;;2.10;1.90;;;23.40;68.70;;;;;;4911255;29;20847;-75
2022/10/17 04:51:17;;;;;;;1.90;1.80;;;23.40;68.70;;;;;;4891557;29;20456;-84
2022/10/17 04:54:11;;;;;;;2.07;1.97;;;23.40;68.70;;;;;;4898269;29;20492;-87
2022/10/17 04:56:45;;;;;;;2.00;1.87;;;23.40;68.60;;;;;;4909494;29;20474;-87
2022/10/17 04:59:14;;;;;;;2.10;2.00;;;23.40;68.60;;;;;;4901415;29;20555;-78
2022/10/17 05:01:44;;;;;;;2.03;1.93;;;23.40;68.50;;;;;;4903400;29;20548;-77
2022/10/17 05:04:13;;;;;;;2.30;2.10;;;23.40;68.50;;;;;;4897770;29;20565;-80
2022/10/17 05:06:41;;;;;;;2.30;2.20;;;23.40;68.50;;;;;;4894293;29;20499;-79
2022/10/17 05:09:36;;;;;;;1.90;1.80;;;23.40;68.50;;;;;;4894224;29;20959;-79
2022/10/17 05:12:06;;;;;;;2.10;2.00;;;23.30;68.40;;;;;;4894519;29;20495;-79
2022/10/17 05:14:40;;;;;;;2.10;2.00;;;23.40;68.40;;;;;;4883461;29;20558;-79
2022/10/17 05:17:08;;;;;;;1.90;1.80;;;23.30;68.40;;;;;;4894395;29;20511;-78
2022/10/17 05:19:37;;;;;;;2.03;1.93;;;23.30;68.30;;;;;;4911686;29;20574;-78
2022/10/17 05:22:07;;;;;;;1.90;1.80;;;23.30;68.40;;;;;;4892179;29;20489;-76
2022/10/17 05:24:35;;;;;;;2.43;2.20;;;23.30;68.40;;;;;;4892925;29;20479;-79
2022/10/17 05:27:03;;;;;;;2.50;2.00;;;23.30;68.30;;;;;;4892066;29;20481;-77
2022/10/17 05:29:34;;;;;;;2.40;2.20;;;23.30;68.30;;;;;;4891717;29;20463;-78
2022/10/17 05:32:10;;;;;;;2.10;1.97;;;23.30;68.40;;;;;;4892926;29;20489;-80
2022/10/17 05:34:38;;;;;;;2.10;2.00;;;23.30;68.40;;;;;;4897090;29;20528;-80
2022/10/17 05:37:06;;;;;;;2.00;1.90;;;23.30;68.40;;;;;;4899315;29;20474;-80
2022/10/17 05:39:35;;;;;;;2.27;2.17;;;23.30;68.40;;;;;;4910060;29;20472;-77
2022/10/17 05:42:04;;;;;;;4.10;2.80;;;23.30;68.30;;;;;;4896152;29;20469;-79
2022/10/17 05:44:34;;;;;;;4.40;2.53;;;23.30;68.60;;;;;;4894789;29;20473;-76
2022/10/17 05:47:02;;;;;;;4.33;2.57;;;23.30;69.20;;;;;;4890463;29;20997;-79
2022/10/17 05:49:31;;;;;;;8.00;3.10;;;23.30;69.00;;;;;;4893621;29;20549;-79
2022/10/17 05:52:16;;;;;;;3.83;2.50;;;23.30;69.00;;;;;;4904673;29;20467;-79
2022/10/17 05:55:08;;;;;;;4.43;3.23;;;23.30;68.80;;;;;;4890679;29;20827;-78
2022/10/17 05:57:36;;;;;;;4.00;2.77;;;23.30;68.80;;;;;;4885632;29;20517;-78
2022/10/17 06:00:11;;;;;;;5.47;2.93;;;23.30;68.70;;;;;;4890496;29;21082;-78
2022/10/17 06:02:41;;;;;;;6.07;3.10;;;23.30;68.80;;;;;;4882546;29;20583;-77
2022/10/17 06:05:13;;;;;;;4.40;2.40;;;23.30;68.80;;;;;;4893996;29;20466;-78
2022/10/17 06:07:41;;;;;;;7.70;3.40;;;23.30;68.80;;;;;;4894467;29;20976;-77
2022/10/17 06:10:11;;;;;;;6.40;3.20;;;23.30;68.80;;;;;;4886156;29;20458;-76
2022/10/17 06:12:39;;;;;;;6.70;3.00;;;23.30;68.70;;;;;;4884889;29;20466;-78
2022/10/17 06:15:10;;;;;;;2.30;2.10;;;23.30;68.70;;;;;;4892004;29;20465;-79
2022/10/17 06:17:40;;;;;;;3.60;2.60;;;23.30;68.70;;;;;;4903404;29;20490;-78
2022/10/17 06:20:09;;;;;;;6.37;3.53;;;23.30;68.70;;;;;;4886490;29;20563;-79
2022/10/17 06:22:37;;;;;;;3.10;2.70;;;23.30;68.60;;;;;;4885665;29;20444;-80
2022/10/17 06:25:11;;;;;;;2.70;2.50;;;23.30;68.60;;;;;;4902772;29;20478;-80
2022/10/17 06:27:40;;;;;;;2.93;2.70;;;23.30;68.60;;;;;;4885953;29;20493;-79
2022/10/17 06:30:10;;;;;;;2.47;2.27;;;23.30;68.50;;;;;;4908854;29;20470;-79
2022/10/17 06:32:38;;;;;;;2.93;2.60;;;23.30;68.50;;;;;;4895074;29;20546;-79
2022/10/17 06:35:07;;;;;;;6.60;3.20;;;23.30;68.50;;;;;;4896535;29;20503;-79
2022/10/17 06:37:36;;;;;;;4.00;2.60;;;23.30;68.50;;;;;;4888520;29;20464;-75
2022/10/17 06:40:11;;;;;;;4.10;2.83;;;23.30;68.50;;;;;;4891005;29;20485;-83
2022/10/17 06:42:39;;;;;;;6.67;3.10;;;23.30;69.10;;;;;;4893021;29;20463;-82
2022/10/17 06:45:24;;;;;;;5.13;2.70;;;23.30;69.20;;;;;;4893092;29;21025;-79
2022/10/17 06:48:08;;;;;;;8.30;3.37;;;23.30;69.20;;;;;;4893633;29;20456;-82
2022/10/17 06:51:08;;;;;;;2.23;2.03;;;23.40;69.30;;;;;;4887024;29;20902;-80
2022/10/17 06:53:45;;;;;;;2.70;2.50;;;23.40;69.40;;;;;;4895179;29;20980;-83
2022/10/17 06:56:43;;;;;;;2.40;2.20;;;23.40;69.50;;;;;;4894334;29;20468;-79
2022/10/17 06:59:29;;;;;;;5.50;2.80;;;23.40;69.50;;;;;;4895027;29;20954;-81
2022/10/17 07:02:11;;;;;;;3.90;2.37;;;23.50;69.50;;;;;;4895371;29;20471;-83
2022/10/17 07:04:39;;;;;;;2.90;2.57;;;23.50;69.60;;;;;;4895948;29;20475;-84
2022/10/17 07:07:07;;;;;;;3.50;2.43;;;23.50;69.60;;;;;;4896988;29;20461;-81
2022/10/17 07:09:36;;;;;;;3.77;2.97;;;23.50;69.50;;;;;;4892553;29;20477;-82
2022/10/17 07:12:07;;;;;;;1.77;1.67;;;23.60;69.50;;;;;;4905693;29;20541;-81
2022/10/17 07:14:35;;;;;;;2.93;2.60;;;23.60;69.40;;;;;;4891638;29;21583;-82
2022/10/17 07:17:04;;;;;;;3.43;2.33;;;23.60;69.40;;;;;;4894601;29;21359;-83
2022/10/17 07:19:34;;;;;;;3.07;2.83;;;23.60;69.20;;;;;;4893616;29;20516;-83
2022/10/17 07:22:03;;;;;;;4.80;3.60;;;23.60;69.00;;;;;;4895060;29;20458;-81
2022/10/17 07:24:32;;;;;;;4.07;2.40;;;23.60;68.80;;;;;;4892573;29;20514;-77
2022/10/17 07:27:12;;;;;;;6.00;3.20;;;23.60;68.90;;;;;;4893821;29;20496;-82
2022/10/17 07:29:40;;;;;;;6.93;4.00;;;23.70;68.50;;;;;;4893559;29;20820;-81
2022/10/17 07:32:18;;;;;;;5.67;2.83;;;23.70;68.50;;;;;;4897569;29;20472;-84
2022/10/17 07:34:47;;;;;;;2.87;2.60;;;23.70;68.70;;;;;;4890784;29;20547;-83
2022/10/17 07:37:15;;;;;;;2.90;2.70;;;23.70;68.90;;;;;;4891397;29;20909;-79
2022/10/17 07:39:50;;;;;;;3.00;2.80;;;23.70;68.90;;;;;;4892262;29;20584;-82
2022/10/17 07:42:18;;;;;;;5.70;2.87;;;23.70;68.80;;;;;;4895387;29;20464;-79
2022/10/17 07:44:46;;;;;;;2.90;2.70;;;23.70;68.60;;;;;;4895200;29;20482;-82
2022/10/17 07:47:15;;;;;;;4.57;2.53;;;23.70;68.50;;;;;;4891767;29;20461;-78
2022/10/17 07:49:44;;;;;;;4.57;3.00;;;23.80;68.60;;;;;;4896253;29;20555;-80
2022/10/17 07:52:14;;;;;;;4.10;3.23;;;23.80;68.40;;;;;;4895522;29;20456;-80
2022/10/17 07:54:43;;;;;;;4.23;3.47;;;23.80;68.20;;;;;;4893537;29;21539;-77
2022/10/17 07:57:11;;;;;;;4.87;3.70;;;23.80;68.40;;;;;;4891800;29;20472;-76
2022/10/17 07:59:39;;;;;;;3.07;2.83;;;23.80;68.20;;;;;;4895028;29;20971;-78
2022/10/17 08:02:14;;;;;;;4.33;2.90;;;23.80;68.20;;;;;;4893391;29;20496;-79
2022/10/17 08:04:42;;;;;;;4.50;3.60;;;23.80;68.00;;;;;;4895016;29;20478;-76
2022/10/17 08:07:10;;;;;;;8.67;4.60;;;23.80;68.10;;;;;;4889458;29;20469;-80
2022/10/17 08:09:49;;;;;;;4.33;3.27;;;23.80;67.90;;;;;;4890251;29;20465;-77
2022/10/17 08:12:17;;;;;;;4.30;2.70;;;23.80;67.90;;;;;;4895451;29;20456;-76
2022/10/17 08:14:46;;;;;;;6.23;3.43;;;23.80;68.10;;;;;;4888400;29;20467;-76
2022/10/17 08:17:15;;;;;;;4.20;3.80;;;23.90;68.00;;;;;;4893315;29;20564;-75
2022/10/17 08:19:43;;;;;;;6.80;3.83;;;23.90;68.00;;;;;;4893423;29;21009;-78
2022/10/17 08:22:11;;;;;;;6.00;4.23;;;23.90;67.90;;;;;;4894790;29;20476;-80
2022/10/17 08:24:41;;;;;;;6.57;3.87;;;23.90;68.00;;;;;;4896789;29;20944;-82
2022/10/17 08:27:12;;;;;;;4.60;3.70;;;23.90;68.10;;;;;;4898696;29;20461;-84
2022/10/17 08:29:40;;;;;;;4.20;3.20;;;23.90;68.10;;;;;;4898266;29;20446;-79
2022/10/17 08:32:09;;;;;;;3.73;3.03;;;24.00;68.10;;;;;;4896869;29;20816;-82
2022/10/17 08:34:37;;;;;;;5.63;3.80;;;24.00;68.10;;;;;;4896646;29;20448;-81
2022/10/17 08:37:05;;;;;;;4.57;3.40;;;24.00;68.00;;;;;;4898860;29;20461;-78
2022/10/17 08:39:33;;;;;;;6.73;4.10;;;24.00;68.00;;;;;;4897244;29;20795;-82
2022/10/17 08:42:17;;;;;;;5.70;3.30;;;24.00;68.00;;;;;;4898000;29;20551;-82
2022/10/17 08:44:57;;;;;;;4.57;3.27;;;24.00;68.10;;;;;;4892605;29;20557;-81
2022/10/17 08:47:33;;;;;;;4.20;3.50;;;24.00;68.10;;;;;;4896069;29;20477;-83
2022/10/17 08:50:03;;;;;;;5.03;3.30;;;24.00;68.00;;;;;;4894610;29;20965;-84
2022/10/17 08:52:39;;;;;;;4.37;3.30;;;24.10;68.10;;;;;;4897754;29;21029;-81
2022/10/17 08:55:15;;;;;;;7.90;3.80;;;24.10;68.00;;;;;;4895861;29;20580;-81
2022/10/17 08:57:45;;;;;;;4.83;3.60;;;24.10;68.10;;;;;;4893450;29;20511;-78
2022/10/17 09:00:18;;;;;;;4.67;3.93;;;24.10;68.10;;;;;;4894291;29;20511;-77
2022/10/17 09:03:00;;;;;;;6.23;3.97;;;24.10;67.90;;;;;;4891168;29;20461;-81
2022/10/17 09:05:39;;;;;;;3.40;3.10;;;24.10;67.90;;;;;;4893908;29;20477;-81
2022/10/17 09:08:23;;;;;;;6.40;3.43;;;24.10;67.90;;;;;;4895226;29;20932;-79
2022/10/17 09:10:57;;;;;;;57.33;33.73;;;24.10;67.90;;;;;;4895345;29;20470;-80
2022/10/17 09:13:43;;;;;;;66.93;42.57;;;24.10;68.10;;;;;;4896536;29;20533;-85
2022/10/17 09:16:24;;;;;;;20.93;12.00;;;24.20;68.10;;;;;;4894483;29;20467;-84
2022/10/17 09:19:01;;;;;;;15.67;10.40;;;24.20;67.90;;;;;;4897098;29;20796;-86
2022/10/17 09:21:39;;;;;;;18.67;9.80;;;24.20;67.80;;;;;;4892485;29;20454;-87
2022/10/17 09:24:15;;;;;;;12.43;8.03;;;24.20;67.80;;;;;;4894695;29;20463;-82
2022/10/17 09:26:45;;;;;;;15.50;7.20;;;24.20;67.70;;;;;;4892462;29;20479;-85
2022/10/17 09:29:21;;;;;;;10.70;7.63;;;24.30;67.70;;;;;;4896287;29;20796;-86
2022/10/17 09:31:57;;;;;;;13.20;7.27;;;24.30;67.70;;;;;;4885434;29;20497;-82
2022/10/17 09:34:28;;;;;;;8.13;5.73;;;24.30;67.60;;;;;;4896549;29;20580;-82
2022/10/17 09:36:59;;;;;;;10.47;6.70;;;24.40;67.60;;;;;;4893080;29;20472;-85
2022/10/17 09:39:30;;;;;;;7.43;5.90;;;24.40;67.50;;;;;;4897906;29;20445;-82
2022/10/17 09:42:00;;;;;;;8.20;5.57;;;24.40;67.40;;;;;;4888350;29;20455;-83
2022/10/17 09:44:33;;;;;;;6.67;5.10;;;24.40;67.40;;;;;;4896931;29;20469;-76
2022/10/17 09:47:22;;;;;;;6.10;4.77;;;24.40;67.50;;;;;;4895869;29;20990;-80
2022/10/17 09:49:51;;;;;;;5.50;4.90;;;24.40;67.40;;;;;;4892024;29;20502;-78
2022/10/17 09:52:25;;;;;;;28.80;21.00;;;24.50;67.50;;;;;;4892167;29;20473;-77
2022/10/17 09:54:57;;;;;;;47.60;28.03;;;24.50;67.90;;;;;;4892789;29;21075;-78
2022/10/17 09:57:25;;;;;;;72.53;45.20;;;24.50;67.80;;;;;;4892534;29;20497;-76
2022/10/17 10:00:00;;;;;;;113.17;62.03;;;24.50;67.70;;;;;;4889091;29;20476;-78
2022/10/17 10:02:31;;;;;;;30.10;17.80;;;24.50;67.70;;;;;;4891628;29;20459;-78
2022/10/17 10:05:03;;;;;;;25.93;15.03;;;24.60;67.50;;;;;;4897010;29;20516;-73
2022/10/17 10:07:36;;;;;;;49.13;18.20;;;24.60;67.10;;;;;;4892757;29;20570;-74
2022/10/17 10:10:07;;;;;;;38.77;14.83;;;24.60;67.30;;;;;;4891757;29;20476;-74
2022/10/17 10:12:38;;;;;;;34.83;15.90;;;24.60;67.20;;;;;;4894405;29;20556;-73
2022/10/17 10:15:34;;;;;;;23.30;11.87;;;24.70;67.00;;;;;;4892054;29;20459;-72
2022/10/17 10:18:02;;;;;;;19.93;10.00;;;24.70;66.20;;;;;;4896394;29;20931;-71
2022/10/17 10:20:33;;;;;;;24.63;10.27;;;24.70;66.40;;;;;;4895564;29;20483;-73
2022/10/17 10:23:23;;;;;;;17.43;8.90;;;24.70;66.60;;;;;;4895324;29;20553;-74
2022/10/17 10:25:56;;;;;;;10.87;7.20;;;24.80;66.40;;;;;;4891633;29;20508;-71
2022/10/17 10:28:27;;;;;;;9.70;5.80;;;24.80;66.30;;;;;;4896576;29;20942;-71
2022/10/17 10:30:59;;;;;;;11.00;5.10;;;24.90;65.50;;;;;;4893909;29;20555;-71
2022/10/17 10:33:29;;;;;;;12.30;5.77;;;24.90;65.70;;;;;;4893877;29;20963;-71
2022/10/17 10:36:02;;;;;;;8.00;5.57;;;25.00;65.50;;;;;;4896362;29;20472;-71
2022/10/17 10:38:32;;;;;;;9.07;5.20;;;25.20;65.40;;;;;;4895987;29;20464;-71
2022/10/17 10:41:04;;;;;;;8.77;4.67;;;25.30;65.10;;;;;;4897482;29;20446;-71
2022/10/17 10:43:37;;;;;;;10.53;5.20;;;25.40;64.90;;;;;;4895477;29;20562;-71
2022/10/17 10:46:18;;;;;;;10.93;4.80;;;25.50;64.70;;;;;;4897071;29;20479;-71
2022/10/17 10:48:55;;;;;;;4.80;3.83;;;25.50;64.50;;;;;;4895690;29;20567;-71
2022/10/17 10:51:28;;;;;;;5.33;4.27;;;25.50;64.30;;;;;;4897508;29;20454;-71
2022/10/17 10:54:02;;;;;;;8.93;4.30;;;25.60;64.30;;;;;;4894749;29;20506;-71
2022/10/17 10:56:34;;;;;;;14.70;7.90;;;25.70;64.30;;;;;;4897802;29;20547;-72
2022/10/17 10:59:09;;;;;;;12.83;7.97;;;25.70;64.20;;;;;;4893943;29;20461;-71
2022/10/17 11:01:46;;;;;;;14.33;8.43;;;25.80;64.10;;;;;;4896407;29;20473;-71
2022/10/17 11:04:23;;;;;;;17.77;9.40;;;25.90;64.00;;;;;;4889467;29;20459;-72
2022/10/17 11:06:55;;;;;;;22.10;9.53;;;25.90;63.80;;;;;;4891974;29;20483;-71
2022/10/17 11:09:31;;;;;;;15.93;8.70;;;26.00;63.60;;;;;;4895774;29;20466;-71
2022/10/17 11:12:13;;;;;;;21.57;10.60;;;26.10;63.40;;;;;;4893658;29;20469;-73
2022/10/17 11:14:48;;;;;;;24.07;9.70;;;26.10;63.30;;;;;;4895031;29;20450;-71
2022/10/17 11:17:28;;;;;;;20.43;8.93;;;26.20;63.10;;;;;;4892143;29;20459;-71
2022/10/17 11:20:10;;;;;;;27.43;9.47;;;26.20;63.20;;;;;;4889386;29;20497;-70
2022/10/17 11:22:42;;;;;;;24.10;8.90;;;26.20;63.20;;;;;;4892513;29;20458;-70
2022/10/17 11:25:22;;;;;;;15.27;7.80;;;26.30;63.20;;;;;;4891323;29;20456;-70
2022/10/17 11:27:50;;;;;;;16.33;8.93;;;26.30;63.20;;;;;;4894735;29;20479;-71
2022/10/17 11:30:18;;;;;;;16.63;8.73;;;26.30;63.20;;;;;;4894544;29;20513;-71
2022/10/17 11:32:54;;;;;;;18.53;8.83;;;26.30;63.20;;;;;;4892201;29;20473;-71
2022/10/17 11:35:26;;;;;;;14.70;7.93;;;26.30;63.20;;;;;;4893249;29;20918;-71
2022/10/17 11:38:01;;;;;;;13.03;8.30;;;26.30;63.30;;;;;;4896697;29;20782;-71
2022/10/17 11:40:33;;;;;;;15.13;7.80;;;26.30;63.40;;;;;;4890470;29;20451;-72
2022/10/17 11:43:05;;;;;;;12.37;7.43;;;26.30;63.40;;;;;;4890834;29;20469;-71
2022/10/17 11:45:39;;;;;;;14.60;6.50;;;26.30;63.50;;;;;;4891283;29;20947;-71
2022/10/17 11:48:14;;;;;;;9.87;6.57;;;26.30;63.40;;;;;;4892929;29;20475;-71
2022/10/17 11:50:47;;;;;;;11.40;7.70;;;26.30;63.40;;;;;;4895490;29;20502;-71
2022/10/17 11:53:46;;;;;;;11.43;5.83;;;26.30;63.50;;;;;;4895230;29;21050;-72
2022/10/17 11:56:20;;;;;;;8.63;5.70;;;26.30;63.50;;;;;;4890903;29;20480;-71
2022/10/17 11:58:54;;;;;;;8.63;5.77;;;26.30;63.40;;;;;;4891364;29;20528;-70
2022/10/17 12:01:32;;;;;;;13.83;5.70;;;26.40;63.40;;;;;;4892384;29;20804;-74
2022/10/17 12:04:21;;;;;;;7.17;5.23;;;26.40;63.40;;;;;;4896487;29;20461;-74
2022/10/17 12:07:02;;;;;;;9.10;5.47;;;26.40;63.40;;;;;;4891279;29;21331;-74
2022/10/17 12:09:39;;;;;;;7.30;5.50;;;26.50;63.50;;;;;;4894888;29;20452;-74
2022/10/17 12:12:07;;;;;;;7.37;4.73;;;26.50;63.60;;;;;;4899667;29;20450;-74
2022/10/17 12:14:45;;;;;;;8.53;5.53;;;26.50;63.60;;;;;;4899106;29;20452;-74
2022/10/17 12:17:31;;;;;;;7.07;4.70;;;26.60;63.50;;;;;;4896829;29;20931;-74
2022/10/17 12:20:29;;;;;;;5.57;4.30;;;26.70;63.40;;;;;;4890476;29;21132;-74
2022/10/17 12:23:02;;;;;;;7.23;4.97;;;26.70;63.30;;;;;;4891725;29;20550;-74
2022/10/17 12:25:33;;;;;;;7.43;5.00;;;26.80;63.30;;;;;;4891993;29;20464;-74
2022/10/17 12:28:14;;;;;;;5.80;3.57;;;26.80;63.20;;;;;;4887090;29;20472;-73
2022/10/17 12:30:55;;;;;;;6.00;4.50;;;26.80;63.20;;;;;;4889605;29;20457;-75
2022/10/17 12:33:33;;;;;;;6.97;4.27;;;26.80;63.20;;;;;;4896955;29;20466;-73
2022/10/17 12:36:45;;;;;;;5.50;3.57;;;26.80;63.20;;;;;;4897634;29;20456;-74
2022/10/17 12:39:45;;;;;;;4.20;3.53;;;26.80;63.20;;;;;;4891795;29;20571;-74
2022/10/17 12:42:50;;;;;;;4.53;3.70;;;26.90;63.10;;;;;;4838912;29;20468;-75
2022/10/17 12:45:47;;;;;;;4.27;3.50;;;26.90;63.10;;;;;;4852192;29;20656;-74
2022/10/17 12:48:45;;;;;;;4.10;3.13;;;27.00;62.90;;;;;;4836308;29;20982;-76
2022/10/17 12:51:16;;;;;;;3.93;2.80;;;27.00;62.80;;;;;;4880070;29;20491;-76
2022/10/17 12:54:11;;;;;;;7.03;3.37;;;27.00;62.80;;;;;;4892904;29;20498;-75
2022/10/17 12:56:43;;;;;;;5.60;3.53;;;27.00;62.90;;;;;;4886936;29;20461;-75
2022/10/17 12:59:16;;;;;;;3.83;3.30;;;27.00;62.90;;;;;;4892779;29;20453;-74
2022/10/17 13:01:48;;;;;;;3.83;3.23;;;27.10;62.80;;;;;;4894352;29;20889;-76
2022/10/17 13:04:17;;;;;;;4.53;3.40;;;27.10;62.80;;;;;;4886617;29;20567;-75
2022/10/17 13:06:48;;;;;;;4.17;3.30;;;27.10;62.80;;;;;;4892076;29;20452;-75
2022/10/17 13:09:23;;;;;;;5.07;3.03;;;27.10;63.00;;;;;;4896422;29;20459;-76
2022/10/17 13:11:53;;;;;;;4.80;2.60;;;27.00;63.00;;;;;;4897419;29;20482;-81
2022/10/17 13:14:24;;;;;;;4.03;2.80;;;27.00;63.00;;;;;;4894959;29;20457;-82
2022/10/17 13:16:54;;;;;;;4.57;3.27;;;27.00;63.20;;;;;;4891424;29;20469;-82
2022/10/17 13:19:24;;;;;;;2.80;2.60;;;27.00;63.40;;;;;;4889918;29;20513;-81